createdAt,value
2018-06-20T00:00:15.819Z,19.97
2018-06-20T00:01:15.704Z,19.87
2018-06-20T00:03:09.002Z,19.93
2018-06-20T00:04:08.873Z,19.93
2018-06-20T00:06:02.224Z,19.97
2018-06-20T00:07:01.624Z,19.93
2018-06-20T00:08:54.485Z,19.93
2018-06-20T00:09:54.384Z,19.96
2018-06-20T00:11:47.246Z,19.96
2018-06-20T00:12:47.119Z,19.94
2018-06-20T00:14:40.406Z,19.90
2018-06-20T00:15:40.315Z,19.94
2018-06-20T00:17:33.126Z,19.87
2018-06-20T00:18:33.056Z,19.90
2018-06-20T00:20:25.936Z,19.94
2018-06-20T00:21:25.802Z,19.96
2018-06-20T00:23:18.630Z,19.92
2018-06-20T00:24:18.547Z,19.96
2018-06-20T00:26:11.414Z,19.90
2018-06-20T00:27:11.314Z,19.89
2018-06-20T00:29:04.143Z,19.92
2018-06-20T00:30:04.032Z,19.89
2018-06-20T00:31:56.905Z,19.92
2018-06-20T00:32:56.774Z,19.87
2018-06-20T00:34:49.613Z,19.90
2018-06-20T00:35:49.519Z,19.92
2018-06-20T00:37:42.393Z,19.94
2018-06-20T00:38:42.268Z,19.89
2018-06-20T00:40:38.150Z,19.94
2018-06-20T00:41:38.196Z,19.90
2018-06-20T00:43:31.892Z,19.89
2018-06-20T00:44:31.795Z,19.94
2018-06-20T00:46:25.137Z,19.92
2018-06-20T00:47:24.938Z,19.89
2018-06-20T00:49:17.802Z,19.92
2018-06-20T00:50:17.697Z,19.94
2018-06-20T00:52:11.485Z,19.96
2018-06-20T00:53:11.355Z,19.94
2018-06-20T00:55:04.633Z,19.90
2018-06-20T00:56:04.545Z,19.93
2018-06-20T00:57:57.385Z,19.92
2018-06-20T00:58:57.248Z,19.89
2018-06-20T01:00:50.139Z,19.84
2018-06-20T01:01:50.007Z,19.82
2018-06-20T01:03:43.385Z,19.92
2018-06-20T01:04:43.280Z,19.78
2018-06-20T01:06:36.134Z,19.92
2018-06-20T01:07:36.032Z,19.90
2018-06-20T01:09:28.863Z,19.79
2018-06-20T01:10:28.769Z,19.82
2018-06-20T01:12:22.147Z,19.84
2018-06-20T01:13:21.572Z,19.78
2018-06-20T01:15:14.436Z,19.75
2018-06-20T01:16:14.428Z,19.79
2018-06-20T01:18:07.136Z,19.74
2018-06-20T01:19:07.010Z,19.75
2018-06-20T01:20:59.865Z,19.78
2018-06-20T01:21:59.759Z,19.74
2018-06-20T01:23:52.648Z,19.77
2018-06-20T01:24:52.590Z,19.75
2018-06-20T01:26:45.358Z,19.78
2018-06-20T01:27:45.273Z,19.77
2018-06-20T01:29:39.184Z,19.74
2018-06-20T01:30:38.847Z,19.68
2018-06-20T01:32:31.675Z,19.78
2018-06-20T01:33:31.637Z,19.74
2018-06-20T01:35:24.451Z,19.77
2018-06-20T01:36:24.336Z,19.68
2018-06-20T01:38:17.264Z,19.63
2018-06-20T01:39:17.091Z,19.64
2018-06-20T01:41:10.465Z,19.68
2018-06-20T01:42:09.855Z,19.63
2018-06-20T01:44:03.185Z,19.70
2018-06-20T01:45:02.585Z,19.64
2018-06-20T01:46:55.464Z,19.63
2018-06-20T01:47:55.322Z,19.62
2018-06-20T01:49:48.201Z,19.62
2018-06-20T01:50:48.129Z,19.60
2018-06-20T01:52:41.477Z,19.64
2018-06-20T01:53:40.839Z,19.63
2018-06-20T01:55:33.744Z,19.56
2018-06-20T01:56:33.575Z,19.59
2018-06-20T01:58:26.969Z,19.60
2018-06-20T01:59:26.336Z,19.56
2018-06-20T02:01:19.065Z,19.54
2018-06-20T02:02:18.979Z,19.50
2018-06-20T02:04:11.840Z,19.50
2018-06-20T02:05:11.723Z,19.49
2018-06-20T02:07:04.580Z,19.53
2018-06-20T02:08:04.547Z,19.56
2018-06-20T02:09:57.368Z,19.60
2018-06-20T02:10:57.220Z,19.64
2018-06-20T02:12:50.141Z,19.45
2018-06-20T02:13:49.969Z,19.53
2018-06-20T02:15:43.311Z,19.54
2018-06-20T02:16:43.220Z,19.57
2018-06-20T02:18:35.987Z,19.52
2018-06-20T02:19:35.896Z,19.53
2018-06-20T02:21:30.346Z,19.52
2018-06-20T02:22:29.682Z,19.37
2018-06-20T02:24:22.506Z,19.42
2018-06-20T02:25:22.467Z,19.37
2018-06-20T02:27:15.314Z,19.44
2018-06-20T02:28:15.157Z,19.42
2018-06-20T02:30:07.993Z,19.37
2018-06-20T02:31:07.914Z,19.39
2018-06-20T02:33:00.769Z,19.42
2018-06-20T02:34:00.665Z,19.38
2018-06-20T02:35:53.503Z,19.26
2018-06-20T02:36:53.441Z,19.34
2018-06-20T02:38:46.274Z,19.27
2018-06-20T02:39:46.170Z,19.20
2018-06-20T02:41:38.988Z,19.24
2018-06-20T02:42:38.907Z,19.23
2018-06-20T02:44:32.278Z,19.15
2018-06-20T02:45:31.653Z,19.05
2018-06-20T02:47:25.005Z,19.07
2018-06-20T02:48:24.417Z,19.12
2018-06-20T02:50:17.280Z,18.96
2018-06-20T02:51:17.146Z,18.96
2018-06-20T02:53:10.031Z,18.86
2018-06-20T02:54:09.917Z,18.85
2018-06-20T02:56:02.741Z,18.78
2018-06-20T02:57:02.663Z,18.79
2018-06-20T02:58:56.026Z,18.71
2018-06-20T02:59:55.397Z,18.63
2018-06-20T03:01:48.279Z,18.54
2018-06-20T03:02:48.164Z,18.49
2018-06-20T03:04:41.401Z,18.43
2018-06-20T03:05:41.309Z,18.48
2018-06-20T03:07:34.195Z,18.31
2018-06-20T03:08:34.068Z,18.30
2018-06-20T03:10:27.310Z,18.26
2018-06-20T03:11:27.244Z,18.21
2018-06-20T03:13:20.100Z,18.12
2018-06-20T03:14:19.972Z,18.13
2018-06-20T03:16:12.813Z,18.09
2018-06-20T03:17:12.725Z,17.99
2018-06-20T03:19:05.588Z,17.96
2018-06-20T03:20:05.466Z,17.96
2018-06-20T03:21:58.312Z,17.96
2018-06-20T03:22:58.223Z,17.87
2018-06-20T03:24:51.086Z,17.96
2018-06-20T03:25:50.956Z,17.83
2018-06-20T03:27:44.232Z,17.76
2018-06-20T03:28:44.143Z,17.79
2018-06-20T03:30:37.003Z,17.78
2018-06-20T03:31:36.871Z,17.65
2018-06-20T03:33:29.750Z,17.59
2018-06-20T03:34:29.626Z,17.63
2018-06-20T03:36:23.029Z,17.56
2018-06-20T03:37:22.786Z,17.54
2018-06-20T03:39:15.634Z,17.46
2018-06-20T03:40:15.531Z,17.46
2018-06-20T03:42:08.415Z,17.39
2018-06-20T03:43:08.278Z,17.41
2018-06-20T03:45:01.140Z,17.41
2018-06-20T03:46:01.030Z,17.30
2018-06-20T03:47:53.902Z,17.37
2018-06-20T03:48:53.787Z,17.45
2018-06-20T03:50:46.623Z,17.45
2018-06-20T03:51:46.540Z,17.53
2018-06-20T03:53:39.396Z,17.45
2018-06-20T03:54:39.277Z,17.37
2018-06-20T03:56:32.120Z,17.53
2018-06-20T03:57:32.051Z,17.47
2018-06-20T03:59:24.882Z,17.47
2018-06-20T04:00:24.774Z,17.43
2018-06-20T04:02:18.058Z,17.43
2018-06-20T04:03:17.934Z,17.43
2018-06-20T04:05:10.797Z,17.49
2018-06-20T04:06:10.679Z,17.50
2018-06-20T04:08:03.567Z,17.50
2018-06-20T04:09:03.459Z,17.49
2018-06-20T04:10:56.294Z,17.50
2018-06-20T04:11:56.187Z,17.56
2018-06-20T04:13:49.050Z,17.54
2018-06-20T04:14:48.955Z,17.62
2018-06-20T04:16:41.804Z,17.59
2018-06-20T04:17:41.715Z,17.71
2018-06-20T04:19:34.582Z,17.73
2018-06-20T04:20:34.473Z,17.68
2018-06-20T04:22:27.294Z,17.73
2018-06-20T04:23:27.245Z,17.71
2018-06-20T04:25:20.021Z,17.78
2018-06-20T04:26:19.938Z,17.72
2018-06-20T04:28:13.799Z,17.86
2018-06-20T04:29:13.199Z,17.76
2018-06-20T04:31:06.056Z,17.84
2018-06-20T04:32:05.963Z,17.81
2018-06-20T04:33:58.794Z,17.93
2018-06-20T04:34:58.711Z,17.81
2018-06-20T04:36:51.536Z,17.88
2018-06-20T04:37:51.439Z,17.86
2018-06-20T04:39:44.836Z,17.90
2018-06-20T04:40:44.222Z,17.96
2018-06-20T04:42:37.081Z,17.96
2018-06-20T04:43:36.957Z,17.99
2018-06-20T04:45:29.785Z,17.97
2018-06-20T04:46:29.690Z,18.02
2018-06-20T04:48:22.551Z,18.03
2018-06-20T04:49:22.448Z,18.11
2018-06-20T04:51:15.301Z,18.12
2018-06-20T04:52:15.202Z,18.23
2018-06-20T04:54:08.048Z,18.26
2018-06-20T04:55:07.953Z,18.27
2018-06-20T04:57:00.816Z,18.30
2018-06-20T04:58:00.682Z,18.28
2018-06-20T04:59:53.553Z,18.38
2018-06-20T05:00:53.436Z,18.46
2018-06-20T05:02:46.342Z,18.46
2018-06-20T05:03:46.211Z,18.54
2018-06-20T05:05:39.657Z,18.49
2018-06-20T05:06:39.462Z,18.57
2018-06-20T05:08:32.307Z,18.58
2018-06-20T05:09:32.286Z,18.64
2018-06-20T05:11:25.062Z,18.58
2018-06-20T05:12:24.947Z,18.70
2018-06-20T05:14:17.837Z,18.75
2018-06-20T05:15:17.693Z,18.81
2018-06-20T05:17:11.078Z,18.91
2018-06-20T05:18:10.451Z,19.01
2018-06-20T05:20:03.316Z,19.19
2018-06-20T05:21:03.231Z,19.23
2018-06-20T05:22:56.109Z,19.38
2018-06-20T05:23:55.951Z,19.49
2018-06-20T05:25:49.338Z,19.67
2018-06-20T05:26:48.734Z,19.78
2018-06-20T05:28:41.553Z,19.94
2018-06-20T05:29:41.441Z,20.05
2018-06-20T05:31:34.317Z,20.15
2018-06-20T05:32:34.197Z,20.27
2018-06-20T05:34:27.058Z,20.41
2018-06-20T05:35:26.950Z,20.49
2018-06-20T05:37:19.787Z,20.52
2018-06-20T05:38:19.705Z,20.65
2018-06-20T05:40:12.624Z,20.71
2018-06-20T05:41:12.491Z,20.79
2018-06-20T05:43:05.320Z,20.90
2018-06-20T05:44:05.202Z,21.00
2018-06-20T05:45:58.568Z,21.11
2018-06-20T05:46:57.950Z,21.18
2018-06-20T05:48:50.841Z,21.28
2018-06-20T05:49:50.696Z,21.32
2018-06-20T05:51:44.061Z,21.41
2018-06-20T05:52:43.445Z,21.44
2018-06-20T05:54:36.290Z,21.55
2018-06-20T05:55:36.199Z,21.51
2018-06-20T05:57:29.032Z,21.43
2018-06-20T05:58:28.939Z,21.45
2018-06-20T06:00:21.801Z,21.58
2018-06-20T06:01:21.707Z,21.50
2018-06-20T06:03:14.542Z,21.56
2018-06-20T06:04:14.447Z,21.71
2018-06-20T06:06:08.330Z,21.66
2018-06-20T06:07:07.617Z,21.66
2018-06-20T06:09:00.437Z,21.67
2018-06-20T06:10:00.348Z,21.67
2018-06-20T06:11:53.202Z,21.74
2018-06-20T06:12:53.111Z,21.67
2018-06-20T06:14:45.967Z,21.78
2018-06-20T06:15:45.846Z,21.73
2018-06-20T06:17:38.833Z,21.77
2018-06-20T06:18:38.714Z,21.88
2018-06-20T06:20:31.672Z,21.80
2018-06-20T06:21:31.553Z,21.75
2018-06-20T06:23:24.427Z,21.73
2018-06-20T06:24:24.299Z,21.69
2018-06-20T06:26:17.159Z,21.77
2018-06-20T06:27:17.048Z,21.71
2018-06-20T06:29:09.890Z,21.85
2018-06-20T06:30:09.804Z,21.88
2018-06-20T06:32:02.695Z,21.82
2018-06-20T06:33:02.564Z,21.94
2018-06-20T06:34:55.423Z,22.04
2018-06-20T06:35:55.295Z,21.98
2018-06-20T06:37:48.301Z,22.04
2018-06-20T06:38:48.044Z,22.04
2018-06-20T06:40:41.848Z,22.09
2018-06-20T06:41:41.724Z,22.30
2018-06-20T06:43:34.580Z,22.33
2018-06-20T06:44:34.525Z,22.33
2018-06-20T06:46:27.808Z,22.16
2018-06-20T06:47:27.626Z,22.15
2018-06-20T06:49:20.478Z,22.04
2018-06-20T06:50:20.377Z,22.04
2018-06-20T06:52:13.762Z,22.01
2018-06-20T06:53:13.638Z,21.96
2018-06-20T06:55:06.482Z,21.82
2018-06-20T06:56:06.447Z,21.93
2018-06-20T06:58:00.780Z,21.90
2018-06-20T06:59:00.088Z,21.84
2018-06-20T07:00:53.832Z,21.94
2018-06-20T07:01:53.792Z,21.90
2018-06-20T07:03:46.811Z,22.03
2018-06-20T07:04:46.701Z,21.93
2018-06-20T07:06:40.065Z,22.07
2018-06-20T07:07:39.646Z,22.11
2018-06-20T07:09:32.514Z,22.11
2018-06-20T07:10:32.396Z,22.22
2018-06-20T07:12:30.743Z,22.12
2018-06-20T07:13:32.165Z,22.07
2018-06-20T07:15:24.188Z,22.11
2018-06-20T07:16:23.960Z,22.19
2018-06-20T07:18:17.707Z,22.18
2018-06-20T07:19:17.613Z,22.28
2018-06-20T07:21:10.543Z,22.19
2018-06-20T07:22:10.363Z,22.23
2018-06-20T07:24:03.639Z,22.21
2018-06-20T07:25:03.529Z,22.38
2018-06-20T07:26:56.371Z,22.49
2018-06-20T07:27:56.277Z,22.48
2018-06-20T07:29:49.146Z,22.67
2018-06-20T07:30:49.023Z,22.59
2018-06-20T07:32:42.465Z,22.74
2018-06-20T07:33:42.172Z,22.67
2018-06-20T07:35:35.163Z,22.86
2018-06-20T07:36:34.925Z,22.92
2018-06-20T07:38:27.758Z,23.06
2018-06-20T07:39:27.690Z,23.14
2018-06-20T07:41:20.528Z,23.17
2018-06-20T07:42:20.414Z,23.23
2018-06-20T07:44:13.271Z,23.06
2018-06-20T07:45:13.191Z,23.06
2018-06-20T07:47:06.031Z,22.88
2018-06-20T07:48:05.914Z,22.80
2018-06-20T07:49:58.762Z,22.73
2018-06-20T07:50:58.690Z,22.67
2018-06-20T07:52:51.535Z,22.68
2018-06-20T07:53:51.418Z,22.71
2018-06-20T07:55:44.290Z,22.80
2018-06-20T07:56:44.174Z,22.83
2018-06-20T07:58:37.028Z,22.85
2018-06-20T07:59:36.921Z,22.93
2018-06-20T08:01:29.767Z,22.83
2018-06-20T08:02:29.669Z,22.83
2018-06-20T08:04:22.525Z,22.77
2018-06-20T08:05:22.421Z,22.81
2018-06-20T08:07:15.803Z,22.95
2018-06-20T08:08:15.725Z,22.88
2018-06-20T08:10:08.547Z,22.70
2018-06-20T08:11:08.463Z,22.80
2018-06-20T08:13:01.316Z,22.83
2018-06-20T08:14:01.198Z,22.91
2018-06-20T08:15:54.049Z,22.96
2018-06-20T08:16:53.940Z,23.04
2018-06-20T08:18:46.831Z,23.03
2018-06-20T08:19:46.716Z,23.01
2018-06-20T08:21:39.526Z,23.10
2018-06-20T08:22:39.425Z,23.21
2018-06-20T08:24:32.285Z,23.17
2018-06-20T08:25:32.186Z,23.17
2018-06-20T08:27:25.444Z,23.31
2018-06-20T08:28:25.349Z,23.39
2018-06-20T08:30:18.200Z,23.51
2018-06-20T08:31:18.089Z,23.52
2018-06-20T08:33:10.930Z,23.55
2018-06-20T08:34:10.842Z,23.66
2018-06-20T08:36:03.705Z,23.01
2018-06-20T08:37:03.591Z,22.93
2018-06-20T08:38:56.949Z,22.86
2018-06-20T08:39:56.845Z,22.89
2018-06-20T08:41:49.744Z,22.88
2018-06-20T08:42:49.598Z,22.88
2018-06-20T08:44:43.370Z,23.01
2018-06-20T08:45:43.275Z,23.03
2018-06-20T08:47:36.148Z,22.98
2018-06-20T08:48:36.032Z,23.11
2018-06-20T08:50:29.378Z,23.39
2018-06-20T08:51:29.187Z,23.45
2018-06-20T08:53:22.049Z,23.59
2018-06-20T08:54:21.932Z,23.63
2018-06-20T08:56:14.761Z,23.74
2018-06-20T08:57:14.670Z,23.73
2018-06-20T08:59:07.556Z,23.82
2018-06-20T09:00:07.420Z,23.89
2018-06-20T09:02:00.277Z,23.94
2018-06-20T09:03:00.188Z,23.94
2018-06-20T09:04:53.040Z,24.01
2018-06-20T09:05:52.949Z,24.22
2018-06-20T09:07:45.798Z,24.33
2018-06-20T09:08:45.710Z,24.31
2018-06-20T09:10:42.527Z,24.29
2018-06-20T09:11:42.454Z,24.15
2018-06-20T09:13:35.270Z,24.13
2018-06-20T09:14:35.174Z,24.10
2018-06-20T09:16:31.014Z,24.13
2018-06-20T09:17:30.920Z,24.13
2018-06-20T09:19:24.281Z,24.13
2018-06-20T09:20:24.183Z,24.34
2018-06-20T09:22:17.009Z,24.34
2018-06-20T09:23:16.922Z,24.37
2018-06-20T09:25:10.150Z,24.59
2018-06-20T09:26:10.080Z,24.56
2018-06-20T09:28:02.922Z,24.68
2018-06-20T09:29:02.814Z,24.55
2018-06-20T09:30:55.679Z,24.28
2018-06-20T09:31:55.603Z,24.25
2018-06-20T09:33:48.422Z,24.36
2018-06-20T09:34:48.314Z,24.37
2018-06-20T09:36:41.685Z,24.29
2018-06-20T09:37:41.062Z,24.10
2018-06-20T09:39:33.930Z,24.10
2018-06-20T09:40:33.809Z,24.00
2018-06-20T09:42:26.677Z,23.92
2018-06-20T09:43:26.579Z,23.88
2018-06-20T09:45:19.388Z,24.06
2018-06-20T09:46:19.308Z,24.11
2018-06-20T09:48:12.178Z,24.33
2018-06-20T09:49:12.060Z,24.28
2018-06-20T09:51:05.421Z,24.37
2018-06-20T09:52:04.811Z,24.28
2018-06-20T09:53:57.677Z,24.37
2018-06-20T09:54:57.583Z,24.33
2018-06-20T09:56:50.953Z,24.51
2018-06-20T09:57:50.868Z,24.51
2018-06-20T09:59:43.656Z,24.53
2018-06-20T10:00:43.588Z,24.44
2018-06-20T10:02:36.949Z,24.41
2018-06-20T10:03:36.310Z,24.45
2018-06-20T10:05:29.217Z,24.28
2018-06-20T10:06:29.069Z,24.31
2018-06-20T10:08:21.948Z,24.47
2018-06-20T10:09:21.812Z,24.45
2018-06-20T10:11:14.759Z,24.65
2018-06-20T10:12:14.592Z,24.74
2018-06-20T10:14:07.419Z,24.82
2018-06-20T10:15:07.332Z,24.97
2018-06-20T10:17:00.685Z,25.30
2018-06-20T10:18:00.070Z,25.48
2018-06-20T10:19:52.922Z,25.63
2018-06-20T10:20:52.872Z,25.78
2018-06-20T10:22:46.207Z,25.95
2018-06-20T10:23:45.614Z,25.93
2018-06-20T10:25:38.451Z,25.90
2018-06-20T10:26:38.338Z,25.98
2018-06-20T10:28:31.173Z,25.86
2018-06-20T10:29:31.067Z,25.89
2018-06-20T10:31:23.900Z,25.67
2018-06-20T10:32:23.814Z,25.67
2018-06-20T10:34:16.704Z,25.74
2018-06-20T10:35:16.557Z,25.85
2018-06-20T10:37:09.409Z,26.04
2018-06-20T10:38:09.311Z,26.03
2018-06-20T10:40:02.177Z,26.15
2018-06-20T10:41:02.068Z,26.16
2018-06-20T10:42:54.896Z,25.88
2018-06-20T10:43:54.809Z,25.89
2018-06-20T10:45:47.666Z,26.04
2018-06-20T10:46:47.553Z,26.08
2018-06-20T10:48:40.419Z,26.43
2018-06-20T10:49:40.353Z,26.48
2018-06-20T10:51:33.184Z,26.97
2018-06-20T10:52:33.060Z,27.19
2018-06-20T10:54:25.910Z,27.34
2018-06-20T10:55:25.818Z,27.35
2018-06-20T10:57:18.665Z,27.91
2018-06-20T10:58:18.560Z,27.93
2018-06-20T11:00:11.830Z,27.87
2018-06-20T11:01:11.742Z,27.69
2018-06-20T11:03:04.575Z,27.41
2018-06-20T11:04:04.558Z,27.37
2018-06-20T11:05:58.893Z,26.82
2018-06-20T11:06:57.259Z,26.70
2018-06-20T11:08:50.072Z,26.60
2018-06-20T11:09:49.973Z,26.58
2018-06-20T11:11:42.868Z,26.76
2018-06-20T11:12:42.747Z,26.71
2018-06-20T11:14:36.060Z,26.39
2018-06-20T11:15:36.008Z,26.46
2018-06-20T11:17:28.862Z,26.24
2018-06-20T11:18:28.729Z,26.11
2018-06-20T11:20:22.403Z,26.19
2018-06-20T11:21:22.319Z,26.01
2018-06-20T11:23:15.215Z,26.15
2018-06-20T11:24:15.055Z,26.11
2018-06-20T11:26:07.902Z,26.08
2018-06-20T11:27:07.795Z,26.12
2018-06-20T11:29:00.690Z,26.10
2018-06-20T11:30:00.624Z,26.08
2018-06-20T11:31:53.403Z,26.30
2018-06-20T11:32:53.295Z,26.33
2018-06-20T11:34:46.146Z,26.36
2018-06-20T11:35:46.043Z,26.16
2018-06-20T11:37:38.878Z,26.30
2018-06-20T11:38:38.791Z,26.24
2018-06-20T11:40:31.685Z,26.23
2018-06-20T11:41:31.567Z,26.26
2018-06-20T11:43:24.375Z,26.21
2018-06-20T11:44:24.296Z,26.36
2018-06-20T11:46:17.169Z,26.57
2018-06-20T11:47:17.051Z,26.90
2018-06-20T11:49:09.875Z,27.37
2018-06-20T11:50:09.789Z,27.38
2018-06-20T11:52:02.666Z,27.22
2018-06-20T11:53:02.565Z,27.19
2018-06-20T11:54:55.378Z,26.85
2018-06-20T11:55:55.292Z,26.75
2018-06-20T11:57:48.170Z,26.85
2018-06-20T11:58:48.047Z,26.78
2018-06-20T12:00:41.283Z,26.63
2018-06-20T12:01:41.220Z,26.60
2018-06-20T12:03:34.055Z,26.53
2018-06-20T12:04:33.954Z,26.42
2018-06-20T12:06:26.865Z,26.60
2018-06-20T12:07:26.699Z,26.61
2018-06-20T12:09:19.591Z,26.56
2018-06-20T12:10:19.468Z,26.42
2018-06-20T12:12:15.433Z,26.39
2018-06-20T12:13:16.241Z,26.51
2018-06-20T12:15:09.632Z,26.61
2018-06-20T12:16:09.370Z,26.85
2018-06-20T12:18:02.097Z,26.83
2018-06-20T12:19:02.030Z,26.70
2018-06-20T12:20:54.849Z,26.70
2018-06-20T12:21:54.785Z,26.80
2018-06-20T12:23:47.620Z,26.75
2018-06-20T12:24:47.499Z,26.75
2018-06-20T12:26:40.355Z,26.88
2018-06-20T12:27:40.282Z,26.88
2018-06-20T12:29:33.383Z,26.76
2018-06-20T12:30:33.076Z,26.80
2018-06-20T12:32:25.950Z,27.05
2018-06-20T12:33:25.798Z,27.19
2018-06-20T12:35:18.588Z,27.49
2018-06-20T12:36:18.494Z,27.64
2018-06-20T12:38:11.352Z,28.00
2018-06-20T12:39:11.255Z,28.01
2018-06-20T12:41:04.071Z,28.35
2018-06-20T12:42:04.050Z,27.95
2018-06-20T12:43:56.866Z,27.95
2018-06-20T12:44:56.746Z,28.17
2018-06-20T12:46:49.613Z,28.43
2018-06-20T12:47:49.493Z,28.03
2018-06-20T12:49:42.361Z,28.03
2018-06-20T12:50:42.251Z,28.22
2018-06-20T12:52:35.192Z,28.47
2018-06-20T12:53:35.001Z,28.27
2018-06-20T12:55:27.853Z,28.07
2018-06-20T12:56:27.758Z,28.17
2018-06-20T12:58:20.653Z,28.32
2018-06-20T12:59:20.513Z,28.46
2018-06-20T13:01:13.366Z,28.59
2018-06-20T13:02:13.247Z,28.64
2018-06-20T13:04:07.541Z,28.83
2018-06-20T13:05:07.426Z,28.50
2018-06-20T13:07:00.285Z,28.09
2018-06-20T13:08:00.182Z,28.35
2018-06-20T13:09:53.018Z,28.91
2018-06-20T13:10:52.926Z,29.04
2018-06-20T13:12:45.792Z,29.15
2018-06-20T13:13:45.674Z,28.96
2018-06-20T13:15:38.515Z,29.29
2018-06-20T13:16:38.466Z,29.41
2018-06-20T13:18:31.282Z,29.76
2018-06-20T13:19:31.211Z,29.10
2018-06-20T13:21:24.047Z,28.81
2018-06-20T13:22:23.932Z,29.00
2018-06-20T13:24:16.798Z,28.86
2018-06-20T13:25:16.702Z,28.66
2018-06-20T13:27:09.509Z,28.44
2018-06-20T13:28:09.438Z,28.72
2018-06-20T13:30:02.279Z,28.72
2018-06-20T13:31:02.236Z,28.80
2018-06-20T13:32:55.022Z,28.80
2018-06-20T13:33:54.966Z,28.91
2018-06-20T13:35:47.776Z,29.52
2018-06-20T13:36:47.677Z,29.66
2018-06-20T13:38:40.520Z,30.18
2018-06-20T13:39:40.508Z,30.14
2018-06-20T13:41:33.317Z,30.15
2018-06-20T13:42:33.171Z,30.13
2018-06-20T13:44:26.008Z,30.37
2018-06-20T13:45:25.941Z,30.45
2018-06-20T13:47:18.775Z,30.07
2018-06-20T13:48:18.685Z,29.78
2018-06-20T13:50:11.502Z,29.25
2018-06-20T13:51:11.438Z,29.33
2018-06-20T13:53:04.310Z,29.71
2018-06-20T13:54:04.176Z,29.52
2018-06-20T13:55:57.117Z,28.81
2018-06-20T13:56:57.029Z,28.64
2018-06-20T13:58:49.886Z,28.62
2018-06-20T13:59:49.775Z,28.81
2018-06-20T14:01:42.638Z,28.94
2018-06-20T14:02:42.538Z,29.18
2018-06-20T14:04:35.892Z,29.40
2018-06-20T14:05:35.809Z,29.62
2018-06-20T14:07:28.749Z,29.73
2018-06-20T14:08:28.656Z,29.74
2018-06-20T14:10:22.088Z,30.05
2018-06-20T14:11:22.076Z,29.93
2018-06-20T14:13:14.951Z,29.71
2018-06-20T14:14:14.875Z,29.83
2018-06-20T14:16:07.801Z,29.59
2018-06-20T14:17:07.716Z,29.61
2018-06-20T14:19:00.672Z,30.07
2018-06-20T14:20:00.560Z,30.52
2018-06-20T14:21:53.505Z,30.26
2018-06-20T14:22:53.425Z,30.08
2018-06-20T14:24:46.371Z,29.71
2018-06-20T14:25:46.269Z,29.71
2018-06-20T14:27:39.215Z,29.63
2018-06-20T14:28:39.108Z,29.80
2018-06-20T14:30:32.044Z,30.55
2018-06-20T14:31:31.969Z,30.71
2018-06-20T14:33:24.931Z,30.89
2018-06-20T14:34:24.815Z,30.97
2018-06-20T14:36:17.766Z,30.78
2018-06-20T14:37:17.666Z,30.96
2018-06-20T14:39:10.621Z,31.57
2018-06-20T14:40:10.537Z,31.79
2018-06-20T14:42:04.610Z,31.99
2018-06-20T14:43:04.431Z,31.74
2018-06-20T14:44:57.333Z,31.59
2018-06-20T14:45:57.249Z,31.42
2018-06-20T14:47:50.200Z,31.33
2018-06-20T14:48:50.112Z,31.52
2018-06-20T14:50:43.464Z,31.14
2018-06-20T14:51:43.392Z,31.17
2018-06-20T14:53:36.227Z,31.29
2018-06-20T14:54:36.131Z,31.41
2018-06-20T14:56:28.966Z,30.67
2018-06-20T14:57:28.867Z,30.58
2018-06-20T14:59:21.716Z,30.29
2018-06-20T15:00:21.607Z,30.24
2018-06-20T15:02:14.456Z,30.53
2018-06-20T15:03:14.397Z,30.78
2018-06-20T15:05:07.188Z,31.11
2018-06-20T15:06:07.106Z,31.11
2018-06-20T15:08:00.596Z,31.60
2018-06-20T15:09:00.395Z,31.60
2018-06-20T15:10:53.212Z,31.89
2018-06-20T15:11:53.139Z,31.87
2018-06-20T15:13:45.966Z,32.04
2018-06-20T15:14:45.905Z,31.87
2018-06-20T15:16:38.850Z,32.35
2018-06-20T15:17:38.622Z,32.53
2018-06-20T15:19:31.463Z,32.08
2018-06-20T15:20:31.368Z,31.67
2018-06-20T15:22:24.228Z,31.91
2018-06-20T15:23:24.116Z,32.11
2018-06-20T15:25:16.979Z,32.54
2018-06-20T15:26:16.889Z,32.35
2018-06-20T15:28:09.721Z,32.80
2018-06-20T15:29:09.619Z,33.12
2018-06-20T15:31:02.450Z,33.62
2018-06-20T15:32:02.392Z,33.10
2018-06-20T15:33:55.236Z,32.09
2018-06-20T15:34:55.114Z,31.54
2018-06-20T15:36:47.944Z,31.56
2018-06-20T15:37:47.887Z,31.61
2018-06-20T15:39:40.719Z,31.75
2018-06-20T15:40:40.640Z,31.29
2018-06-20T15:42:33.491Z,32.26
2018-06-20T15:43:33.365Z,32.68
2018-06-20T15:45:26.744Z,33.32
2018-06-20T15:46:26.116Z,33.62
2018-06-20T15:48:18.967Z,34.73
2018-06-20T15:49:18.883Z,34.70
2018-06-20T15:51:11.754Z,34.85
2018-06-20T15:52:11.619Z,34.87
2018-06-20T15:54:04.555Z,34.13
2018-06-20T15:55:04.372Z,33.92
2018-06-20T15:56:57.196Z,34.15
2018-06-20T15:57:57.116Z,34.64
2018-06-20T15:59:49.968Z,35.46
2018-06-20T16:00:49.862Z,35.81
2018-06-20T16:02:42.704Z,35.24
2018-06-20T16:03:42.637Z,34.99
2018-06-20T16:05:36.190Z,34.47
2018-06-20T16:06:35.897Z,34.59
2018-06-20T16:08:28.727Z,33.42
2018-06-20T16:09:28.631Z,33.47
2018-06-20T16:11:22.486Z,33.45
2018-06-20T16:12:21.474Z,33.73
2018-06-20T16:14:14.337Z,34.25
2018-06-20T16:15:14.235Z,34.55
2018-06-20T16:17:07.089Z,35.09
2018-06-20T16:18:06.981Z,35.02
2018-06-20T16:19:59.815Z,34.82
2018-06-20T16:20:59.844Z,34.97
2018-06-20T16:22:52.552Z,34.23
2018-06-20T16:23:52.506Z,34.92
2018-06-20T16:25:45.442Z,36.11
2018-06-20T16:26:45.333Z,36.56
2018-06-20T16:28:38.198Z,36.06
2018-06-20T16:29:38.979Z,36.04
2018-06-20T16:31:31.010Z,36.15
2018-06-20T16:32:30.858Z,35.91
2018-06-20T16:34:24.217Z,35.88
2018-06-20T16:35:24.113Z,35.88
2018-06-20T16:37:17.474Z,35.02
2018-06-20T16:38:16.847Z,35.23
2018-06-20T16:40:10.198Z,34.98
2018-06-20T16:41:10.117Z,34.44
2018-06-20T16:43:02.934Z,34.35
2018-06-20T16:44:02.842Z,34.97
2018-06-20T16:45:55.693Z,34.70
2018-06-20T16:46:55.603Z,34.26
2018-06-20T16:48:48.441Z,35.14
2018-06-20T16:49:48.356Z,35.21
2018-06-20T16:51:41.204Z,35.23
2018-06-20T16:52:41.105Z,36.00
2018-06-20T16:54:33.924Z,36.32
2018-06-20T16:55:33.853Z,36.33
2018-06-20T16:57:27.269Z,35.95
2018-06-20T16:58:27.320Z,35.58
2018-06-20T17:00:19.973Z,36.11
2018-06-20T17:01:19.871Z,36.75
2018-06-20T17:03:12.706Z,36.60
2018-06-20T17:04:12.607Z,36.47
2018-06-20T17:06:05.618Z,36.32
2018-06-20T17:07:05.369Z,36.04
2018-06-20T17:08:58.201Z,36.57
2018-06-20T17:09:58.168Z,36.60
2018-06-20T17:11:50.955Z,36.23
2018-06-20T17:12:50.870Z,36.32
2018-06-20T17:14:43.728Z,36.75
2018-06-20T17:15:43.621Z,37.07
2018-06-20T17:17:37.913Z,37.31
2018-06-20T17:18:36.362Z,36.93
2018-06-20T17:20:29.759Z,36.07
2018-06-20T17:21:29.635Z,36.41
2018-06-20T17:23:22.659Z,35.42
2018-06-20T17:24:22.372Z,35.14
2018-06-20T17:26:15.774Z,35.51
2018-06-20T17:27:15.331Z,35.66
2018-06-20T17:29:08.165Z,36.35
2018-06-20T17:30:08.089Z,36.60
2018-06-20T17:32:00.928Z,36.83
2018-06-20T17:33:00.843Z,36.71
2018-06-20T17:34:53.686Z,35.21
2018-06-20T17:35:53.676Z,35.48
2018-06-20T17:37:46.423Z,34.86
2018-06-20T17:38:46.348Z,34.66
2018-06-20T17:40:39.238Z,33.48
2018-06-20T17:41:39.089Z,33.10
2018-06-20T17:43:31.930Z,32.57
2018-06-20T17:44:31.867Z,32.31
2018-06-20T17:46:24.709Z,31.94
2018-06-20T17:47:24.653Z,31.60
2018-06-20T17:49:17.419Z,30.99
2018-06-20T17:50:17.349Z,30.65
2018-06-20T17:52:10.181Z,32.31
2018-06-20T17:53:10.093Z,33.03
2018-06-20T17:55:02.907Z,33.58
2018-06-20T17:56:02.874Z,34.03
2018-06-20T17:57:55.676Z,33.63
2018-06-20T17:58:55.583Z,33.70
2018-06-20T18:00:48.406Z,33.88
2018-06-20T18:01:48.351Z,34.20
2018-06-20T18:03:41.188Z,35.04
2018-06-20T18:04:41.070Z,35.05
2018-06-20T18:06:33.890Z,34.56
2018-06-20T18:07:33.822Z,34.30
2018-06-20T18:09:26.669Z,34.41
2018-06-20T18:10:26.574Z,34.60
2018-06-20T18:12:19.490Z,34.01
2018-06-20T18:13:19.349Z,33.82
2018-06-20T18:15:12.703Z,33.17
2018-06-20T18:16:12.717Z,32.72
2018-06-20T18:18:05.416Z,31.57
2018-06-20T18:19:05.372Z,31.02
2018-06-20T18:20:58.691Z,30.45
2018-06-20T18:21:58.598Z,30.21
2018-06-20T18:23:51.463Z,30.00
2018-06-20T18:24:51.341Z,29.89
2018-06-20T18:26:44.197Z,29.50
2018-06-20T18:27:44.138Z,29.46
2018-06-20T18:29:36.956Z,29.10
2018-06-20T18:30:36.855Z,28.98
2018-06-20T18:32:29.686Z,28.81